createdAt,value
2023-02-14T00:05:49.412Z,23.23
2023-02-14T00:15:54.766Z,23.18
2023-02-14T00:26:00.051Z,23.22
2023-02-14T00:36:05.023Z,23.16
2023-02-14T00:46:10.381Z,23.14
2023-02-14T00:56:15.418Z,23.12
2023-02-14T01:06:20.832Z,23.11
2023-02-14T01:16:25.985Z,23.08
2023-02-14T01:26:31.567Z,23.11
2023-02-14T01:36:36.879Z,23.08
2023-02-14T01:46:41.851Z,23.15
2023-02-14T01:56:47.001Z,23.11
2023-02-14T02:06:52.355Z,23.10
2023-02-14T02:16:57.337Z,23.06
2023-02-14T02:27:02.674Z,23.11
2023-02-14T02:37:07.824Z,23.03
2023-02-14T02:47:12.556Z,23.05
2023-02-14T02:57:17.625Z,23.05
2023-02-14T03:07:22.898Z,23.05
2023-02-14T03:17:28.218Z,23.04
2023-02-14T03:27:33.644Z,23.08
2023-02-14T03:37:38.991Z,23.05
2023-02-14T03:47:43.827Z,23.03
2023-02-14T03:57:49.056Z,23.06
2023-02-14T04:07:53.898Z,23.05
2023-02-14T04:17:59.115Z,23.04
2023-02-14T04:28:05.650Z,23.00
2023-02-14T04:38:10.922Z,23.00
2023-02-14T04:48:16.650Z,23.01
2023-02-14T04:58:21.867Z,23.00
2023-02-14T05:08:27.164Z,23.01
2023-02-14T05:18:32.306Z,22.97
2023-02-14T05:28:37.459Z,22.98
2023-02-14T05:38:42.605Z,23.00
2023-02-14T05:48:47.964Z,22.99
2023-02-14T05:58:53.122Z,22.97
2023-02-14T06:08:59.039Z,22.99
2023-02-14T06:19:04.255Z,22.97
2023-02-14T06:29:09.488Z,22.94
2023-02-14T06:39:14.682Z,22.96
2023-02-14T06:49:19.666Z,22.98
2023-02-14T06:59:24.720Z,22.94
2023-02-14T07:09:30.555Z,22.94
2023-02-14T07:19:35.894Z,22.94
2023-02-14T07:29:40.924Z,22.91
2023-02-14T07:39:46.493Z,22.95
2023-02-14T07:49:51.846Z,22.91
2023-02-14T07:59:57.147Z,22.95
2023-02-14T08:10:02.213Z,22.89
2023-02-14T08:20:07.514Z,22.89
2023-02-14T08:30:12.766Z,22.99
2023-02-14T08:40:18.509Z,22.96
2023-02-14T08:50:23.449Z,23.00
2023-02-14T09:00:28.829Z,23.05
2023-02-14T09:10:33.965Z,23.16
2023-02-14T09:20:39.238Z,23.13
2023-02-14T09:30:44.738Z,23.17
2023-02-14T09:40:49.956Z,23.20
2023-02-14T09:50:55.201Z,23.29
2023-02-14T10:01:01.248Z,23.26
2023-02-14T10:11:06.994Z,23.22
2023-02-14T10:21:12.026Z,23.20
2023-02-14T10:31:18.056Z,23.21
2023-02-14T10:41:23.541Z,23.14
2023-02-14T10:51:29.194Z,23.08
2023-02-14T11:01:34.521Z,23.06
2023-02-14T11:11:39.808Z,23.04
2023-02-14T11:21:44.998Z,22.98
2023-02-14T11:31:50.849Z,22.95
2023-02-14T11:41:56.249Z,22.90
2023-02-14T11:52:01.687Z,23.04
2023-02-14T12:02:07.183Z,23.07
2023-02-14T12:12:12.750Z,23.07
2023-02-14T12:22:18.368Z,23.09
2023-02-14T12:32:23.126Z,23.17
2023-02-14T12:42:28.497Z,23.18
2023-02-14T12:52:33.830Z,23.18
2023-02-14T13:02:39.572Z,23.19
2023-02-14T13:12:44.908Z,23.25
2023-02-14T13:22:50.281Z,23.28
2023-02-14T13:32:56.286Z,23.21
2023-02-14T13:43:01.391Z,23.23
2023-02-14T13:53:06.901Z,23.16
2023-02-14T14:03:12.163Z,23.28
2023-02-14T14:13:17.492Z,23.28
2023-02-14T14:23:23.055Z,23.21
2023-02-14T14:33:28.166Z,23.14
2023-02-14T14:43:33.169Z,23.17
2023-02-14T14:53:38.687Z,23.18
2023-02-14T15:03:44.034Z,23.22
2023-02-14T15:13:49.353Z,23.22
2023-02-14T15:23:54.495Z,23.18
2023-02-14T15:33:59.805Z,23.17
2023-02-14T15:44:05.105Z,23.25
2023-02-14T15:54:10.446Z,23.22
2023-02-14T16:04:15.584Z,23.22
2023-02-14T16:14:21.053Z,23.18
2023-02-14T16:24:26.611Z,23.26
2023-02-14T16:34:31.719Z,23.23
2023-02-14T16:44:37.059Z,23.23
2023-02-14T16:54:42.201Z,23.27
2023-02-14T17:04:48.064Z,23.24
2023-02-14T17:14:53.441Z,23.26
2023-02-14T17:24:58.979Z,23.26
2023-02-14T17:35:03.840Z,23.28
2023-02-14T17:45:09.018Z,23.31
2023-02-14T17:55:14.471Z,23.26
2023-02-14T18:05:19.718Z,23.31
2023-02-14T18:15:25.077Z,23.30
2023-02-14T18:25:30.158Z,23.29
2023-02-14T18:35:35.976Z,23.33
2023-02-14T18:45:41.484Z,23.32
2023-02-14T18:55:46.976Z,23.30
2023-02-14T19:05:52.020Z,23.29
2023-02-14T19:15:57.254Z,23.31
2023-02-14T19:26:03.777Z,23.31
2023-02-14T19:36:10.859Z,23.38
2023-02-14T19:46:16.122Z,23.36
2023-02-14T19:56:22.062Z,23.39
2023-02-14T20:06:27.161Z,23.34
2023-02-14T20:16:32.329Z,23.37
2023-02-14T20:26:37.801Z,23.43
2023-02-14T20:36:43.471Z,23.38
2023-02-14T20:46:48.836Z,23.43
2023-02-14T20:56:54.131Z,23.39
2023-02-14T21:06:59.388Z,23.46
2023-02-14T21:17:04.988Z,23.56
2023-02-14T21:27:10.469Z,23.55
2023-02-14T21:37:18.004Z,23.58
2023-02-14T21:47:23.648Z,23.60
2023-02-14T21:57:29.004Z,23.60
2023-02-14T22:07:34.618Z,23.60
2023-02-14T22:17:40.147Z,23.59
2023-02-14T22:27:46.044Z,23.55
2023-02-14T22:37:51.223Z,23.57
2023-02-14T22:47:56.094Z,23.58
2023-02-14T22:58:01.533Z,23.59
2023-02-14T23:08:07.161Z,23.60
2023-02-14T23:18:12.679Z,23.61
2023-02-14T23:28:18.252Z,23.65
2023-02-14T23:38:24.070Z,23.63
2023-02-14T23:48:29.193Z,23.65
2023-02-14T23:58:34.576Z,23.56
